createdAt,value
2022-10-22T00:01:08.670Z,83.00
2022-10-22T00:03:39.190Z,83.37
2022-10-22T00:06:07.282Z,83.37
2022-10-22T00:08:35.206Z,83.08
2022-10-22T00:11:29.329Z,82.87
2022-10-22T00:13:58.102Z,82.87
2022-10-22T00:16:25.957Z,82.57
2022-10-22T00:18:53.604Z,83.13
2022-10-22T00:21:21.395Z,83.57
2022-10-22T00:23:49.183Z,83.63
2022-10-22T00:26:16.827Z,83.23
2022-10-22T00:28:44.465Z,83.14
2022-10-22T00:31:12.166Z,83.04
2022-10-22T00:33:39.755Z,83.22
2022-10-22T00:36:08.232Z,83.02
2022-10-22T00:38:36.211Z,83.46
2022-10-22T00:41:03.868Z,83.87
2022-10-22T00:43:31.487Z,83.83
2022-10-22T00:45:59.111Z,83.64
2022-10-22T00:48:30.066Z,83.45
2022-10-22T00:51:07.386Z,83.38
2022-10-22T00:53:40.056Z,83.44
2022-10-22T00:56:09.238Z,82.87
2022-10-22T00:58:41.948Z,83.20
2022-10-22T01:01:16.428Z,83.41
2022-10-22T01:03:44.192Z,83.86
2022-10-22T01:06:18.417Z,83.79
2022-10-22T01:09:08.057Z,83.41
2022-10-22T01:12:14.773Z,83.28
2022-10-22T01:14:54.240Z,83.25
2022-10-22T01:17:30.018Z,83.13
2022-10-22T01:20:00.774Z,83.49
2022-10-22T01:22:54.952Z,83.64
2022-10-22T01:25:31.133Z,84.05
2022-10-22T01:28:11.851Z,83.81
2022-10-22T01:30:41.180Z,83.92
2022-10-22T01:33:12.676Z,83.67
2022-10-22T01:35:44.338Z,83.58
2022-10-22T01:38:22.132Z,83.40
2022-10-22T01:40:51.441Z,83.84
2022-10-22T01:43:19.244Z,84.12
2022-10-22T01:45:54.172Z,84.28
2022-10-22T01:48:43.315Z,84.18
2022-10-22T01:51:29.699Z,84.01
2022-10-22T01:54:59.288Z,83.63
2022-10-22T01:57:41.351Z,83.57
2022-10-22T02:00:15.360Z,83.86
2022-10-22T02:02:51.126Z,84.33
2022-10-22T02:05:30.247Z,84.03
2022-10-22T02:08:03.203Z,84.26
2022-10-22T02:10:31.316Z,84.08
2022-10-22T02:13:01.402Z,84.25
2022-10-22T02:15:32.410Z,84.30
2022-10-22T02:18:01.345Z,84.53
2022-10-22T02:20:33.000Z,85.09
2022-10-22T02:23:01.708Z,85.14
2022-10-22T02:25:34.483Z,85.47
2022-10-22T02:28:18.346Z,85.56
2022-10-22T02:30:54.263Z,85.12
2022-10-22T02:33:28.693Z,85.25
2022-10-22T02:35:58.273Z,85.18
2022-10-22T02:38:28.264Z,85.46
2022-10-22T02:40:57.623Z,85.91
2022-10-22T02:43:25.624Z,85.58
2022-10-22T02:45:53.296Z,85.34
2022-10-22T02:50:53.555Z,85.17
2022-10-22T02:53:21.275Z,85.36
2022-10-22T02:55:49.045Z,85.68
2022-10-22T02:58:16.923Z,85.74
2022-10-22T03:00:44.664Z,85.84
2022-10-22T03:03:12.400Z,85.40
2022-10-22T03:05:40.129Z,85.21
2022-10-22T03:08:07.950Z,85.36
2022-10-22T03:10:35.635Z,85.77
2022-10-22T03:13:03.267Z,86.03
2022-10-22T03:15:30.872Z,86.16
2022-10-22T03:17:58.671Z,86.20
2022-10-22T03:20:26.474Z,85.82
2022-10-22T03:22:55.146Z,85.95
2022-10-22T03:25:25.254Z,86.32
2022-10-22T03:27:56.428Z,86.09
2022-10-22T03:30:24.010Z,86.52
2022-10-22T03:32:51.622Z,86.53
2022-10-22T03:35:19.281Z,86.62
2022-10-22T03:37:47.052Z,86.11
2022-10-22T03:40:15.140Z,85.86
2022-10-22T03:42:43.093Z,85.59
2022-10-22T03:45:11.216Z,86.04
2022-10-22T03:47:39.177Z,86.51
2022-10-22T03:50:07.929Z,86.58
2022-10-22T03:52:37.692Z,86.39
2022-10-22T03:55:06.949Z,86.35
2022-10-22T03:57:34.844Z,86.26
2022-10-22T04:00:04.946Z,86.18
2022-10-22T04:02:32.786Z,86.63
2022-10-22T04:05:00.733Z,86.85
2022-10-22T04:07:28.574Z,86.95
2022-10-22T04:09:56.235Z,86.96
2022-10-22T04:12:23.924Z,86.46
2022-10-22T04:14:51.714Z,86.58
2022-10-22T04:17:19.378Z,86.21
2022-10-22T04:19:47.072Z,86.40
2022-10-22T04:22:14.683Z,86.61
2022-10-22T04:24:42.298Z,86.61
2022-10-22T04:27:09.940Z,86.35
2022-10-22T04:29:37.606Z,86.19
2022-10-22T04:32:05.302Z,85.78
2022-10-22T04:34:33.000Z,85.93
2022-10-22T04:37:00.615Z,85.99
2022-10-22T04:39:28.407Z,86.29
2022-10-22T04:41:56.223Z,86.18
2022-10-22T04:44:23.939Z,85.92
2022-10-22T04:46:51.716Z,85.82
2022-10-22T04:49:19.778Z,85.38
2022-10-22T04:51:47.372Z,85.26
2022-10-22T04:54:15.281Z,85.48
2022-10-22T04:56:42.995Z,85.76
2022-10-22T04:59:12.745Z,85.59
2022-10-22T05:01:43.850Z,85.57
2022-10-22T05:04:14.803Z,85.24
2022-10-22T05:06:43.242Z,85.11
2022-10-22T05:09:14.033Z,85.13
2022-10-22T05:11:46.156Z,85.30
2022-10-22T05:14:17.178Z,85.75
2022-10-22T05:16:48.259Z,85.78
2022-10-22T05:19:25.958Z,85.55
2022-10-22T05:21:55.759Z,85.44
2022-10-22T05:24:23.713Z,85.45
2022-10-22T05:26:53.257Z,85.52
2022-10-22T05:29:21.586Z,85.69
2022-10-22T05:31:49.240Z,85.98
2022-10-22T05:34:17.492Z,86.10
2022-10-22T05:36:45.606Z,85.89
2022-10-22T05:39:13.362Z,85.52
2022-10-22T05:41:42.495Z,85.23
2022-10-22T05:44:11.917Z,85.21
2022-10-22T05:46:40.015Z,85.05
2022-10-22T05:49:07.713Z,84.96
2022-10-22T05:51:36.764Z,85.19
2022-10-22T05:54:07.534Z,85.42
2022-10-22T05:56:37.003Z,85.34
2022-10-22T05:59:04.819Z,85.17
2022-10-22T06:01:35.458Z,84.85
2022-10-22T06:04:06.512Z,84.81
2022-10-22T06:06:35.723Z,84.90
2022-10-22T06:09:23.808Z,84.84
2022-10-22T06:11:51.938Z,85.21
2022-10-22T06:14:20.573Z,85.14
2022-10-22T06:16:49.623Z,85.01
2022-10-22T06:19:20.328Z,84.84
2022-10-22T06:21:48.651Z,84.71
2022-10-22T06:24:16.592Z,84.37
2022-10-22T06:26:44.772Z,84.80
2022-10-22T06:29:12.420Z,84.92
2022-10-22T06:31:40.039Z,85.00
2022-10-22T06:34:12.703Z,84.94
2022-10-22T06:36:42.807Z,84.67
2022-10-22T06:39:15.989Z,84.34
2022-10-22T06:41:43.753Z,84.27
2022-10-22T06:44:19.299Z,84.48
2022-10-22T06:46:49.589Z,84.87
2022-10-22T06:49:17.506Z,84.94
2022-10-22T06:51:45.657Z,84.54
2022-10-22T06:54:13.315Z,84.50
2022-10-22T06:56:41.044Z,84.08
2022-10-22T06:59:08.759Z,84.22
2022-10-22T07:01:36.992Z,84.57
2022-10-22T07:04:05.120Z,84.77
2022-10-22T07:06:32.883Z,84.67
2022-10-22T07:09:00.761Z,84.43
2022-10-22T07:11:31.341Z,84.28
2022-10-22T07:14:01.062Z,84.15
2022-10-22T07:16:31.264Z,83.96
2022-10-22T07:19:01.508Z,83.98
2022-10-22T07:21:30.525Z,84.32
2022-10-22T07:23:59.236Z,84.63
2022-10-22T07:26:30.616Z,84.69
2022-10-22T07:29:02.987Z,84.55
2022-10-22T07:31:31.439Z,84.25
2022-10-22T07:33:59.071Z,83.92
2022-10-22T07:36:27.004Z,84.07
2022-10-22T07:38:58.490Z,84.05
2022-10-22T07:41:27.874Z,84.23
2022-10-22T07:43:55.871Z,84.45
2022-10-22T07:46:24.674Z,84.43
2022-10-22T07:48:52.776Z,84.51
2022-10-22T07:51:20.495Z,83.92
2022-10-22T07:53:48.314Z,83.74
2022-10-22T07:56:16.227Z,83.48
2022-10-22T07:58:44.885Z,83.32
2022-10-22T08:01:12.650Z,83.72
2022-10-22T08:03:40.361Z,83.96
2022-10-22T08:06:09.973Z,83.78
2022-10-22T08:08:37.694Z,83.40
2022-10-22T08:11:05.710Z,83.35
2022-10-22T08:13:33.333Z,83.02
2022-10-22T08:16:01.567Z,82.86
2022-10-22T08:18:29.603Z,82.58
2022-10-22T08:20:57.544Z,82.88
2022-10-22T08:23:27.486Z,83.48
2022-10-22T08:25:57.608Z,83.35
2022-10-22T08:28:26.037Z,83.06
2022-10-22T08:30:53.697Z,82.56
2022-10-22T08:33:21.647Z,82.24
2022-10-22T08:35:51.449Z,81.94
2022-10-22T08:38:19.905Z,81.72
2022-10-22T08:40:53.021Z,81.92
2022-10-22T08:43:39.537Z,82.33
2022-10-22T08:46:08.361Z,82.64
2022-10-22T08:48:56.227Z,82.79
2022-10-22T08:51:27.425Z,82.43
2022-10-22T08:54:17.148Z,81.99
2022-10-22T08:56:51.145Z,81.72
2022-10-22T08:59:26.141Z,81.58
2022-10-22T09:01:54.776Z,81.34
2022-10-22T09:04:30.911Z,81.70
2022-10-22T09:07:00.077Z,82.04
2022-10-22T09:09:35.249Z,81.50
2022-10-22T09:12:07.211Z,81.09
2022-10-22T09:14:35.087Z,80.95
2022-10-22T09:17:03.125Z,80.78
2022-10-22T09:19:49.708Z,80.76
2022-10-22T09:22:51.020Z,80.97
2022-10-22T09:25:25.857Z,81.17
2022-10-22T09:27:58.324Z,81.27
2022-10-22T09:30:33.498Z,81.14
2022-10-22T09:33:01.340Z,80.60
2022-10-22T09:35:34.496Z,80.75
2022-10-22T09:38:08.481Z,80.35
2022-10-22T09:40:57.498Z,80.14
2022-10-22T09:43:25.503Z,80.04
2022-10-22T09:46:17.804Z,80.33
2022-10-22T09:49:11.901Z,80.52
2022-10-22T09:51:51.970Z,80.39
2022-10-22T09:54:24.568Z,79.91
2022-10-22T09:56:57.201Z,79.91
2022-10-22T09:59:28.937Z,79.78
2022-10-22T10:02:13.748Z,79.63
2022-10-22T10:04:51.017Z,79.83
2022-10-22T10:07:21.380Z,80.03
2022-10-22T10:09:49.825Z,80.36
2022-10-22T10:12:29.543Z,80.24
2022-10-22T10:15:13.593Z,80.09
2022-10-22T10:18:00.490Z,79.91
2022-10-22T10:20:31.166Z,79.78
2022-10-22T10:23:07.605Z,79.67
2022-10-22T10:25:37.849Z,79.96
2022-10-22T10:28:33.939Z,80.29
2022-10-22T10:31:27.712Z,80.22
2022-10-22T10:34:13.114Z,80.01
2022-10-22T10:37:01.467Z,79.74
2022-10-22T10:39:38.196Z,79.71
2022-10-22T10:42:11.990Z,79.94
2022-10-22T10:45:17.233Z,79.66
2022-10-22T10:48:40.533Z,79.84
2022-10-22T10:51:40.720Z,80.31
2022-10-22T10:54:27.826Z,80.05
2022-10-22T10:57:07.991Z,80.00
2022-10-22T10:59:41.979Z,79.95
2022-10-22T11:02:34.554Z,79.84
2022-10-22T11:05:14.174Z,79.58
2022-10-22T11:07:49.917Z,80.03
2022-10-22T11:10:30.353Z,80.40
2022-10-22T11:13:06.939Z,80.15
2022-10-22T11:15:37.514Z,79.77
2022-10-22T11:18:13.930Z,79.81
2022-10-22T11:20:49.279Z,79.40
2022-10-22T11:23:34.011Z,79.50
2022-10-22T11:26:02.917Z,79.24
2022-10-22T11:28:59.086Z,79.67
2022-10-22T11:31:27.757Z,80.13
2022-10-22T11:34:33.234Z,80.06
2022-10-22T11:37:03.152Z,79.78
2022-10-22T11:39:49.016Z,79.62
2022-10-22T11:42:22.810Z,79.35
2022-10-22T11:45:06.253Z,79.38
2022-10-22T11:47:51.741Z,79.17
2022-10-22T11:50:25.438Z,79.72
2022-10-22T11:53:02.625Z,80.04
2022-10-22T11:55:55.462Z,79.80
2022-10-22T11:58:27.392Z,79.38
2022-10-22T12:01:18.474Z,79.13
2022-10-22T12:03:50.741Z,78.81
2022-10-22T12:06:29.180Z,78.69
2022-10-22T12:09:01.534Z,78.90
2022-10-22T12:11:29.277Z,79.16
2022-10-22T12:14:40.687Z,79.38
2022-10-22T12:17:14.415Z,79.35
2022-10-22T12:19:49.461Z,79.20
2022-10-22T12:22:21.477Z,79.16
2022-10-22T12:24:51.493Z,78.91
2022-10-22T12:27:24.778Z,78.90
2022-10-22T12:30:00.993Z,79.14
2022-10-22T12:32:37.637Z,79.43
2022-10-22T12:35:20.509Z,79.36
2022-10-22T12:37:53.085Z,79.21
2022-10-22T12:40:47.687Z,79.14
2022-10-22T12:43:25.605Z,79.13
2022-10-22T12:45:54.595Z,78.76
2022-10-22T12:48:37.370Z,79.30
2022-10-22T12:51:08.237Z,79.58
2022-10-22T12:53:39.306Z,79.61
2022-10-22T12:56:12.337Z,79.56
2022-10-22T12:58:46.946Z,79.26
2022-10-22T13:01:17.345Z,79.45
2022-10-22T13:03:50.419Z,79.34
2022-10-22T13:06:22.397Z,79.39
2022-10-22T13:09:00.333Z,79.79
2022-10-22T13:11:33.873Z,80.16
2022-10-22T13:14:04.089Z,80.28
2022-10-22T13:16:32.260Z,80.25
2022-10-22T13:18:59.977Z,79.99
2022-10-22T13:21:48.800Z,80.17
2022-10-22T13:24:22.198Z,80.04
2022-10-22T13:26:53.099Z,80.33
2022-10-22T13:29:23.449Z,80.67
2022-10-22T13:31:53.442Z,80.68
2022-10-22T13:34:24.903Z,80.62
2022-10-22T13:36:52.677Z,80.53
2022-10-22T13:39:22.981Z,80.26
2022-10-22T13:41:51.761Z,80.42
2022-10-22T13:44:19.938Z,80.66
2022-10-22T13:46:48.454Z,80.99
2022-10-22T13:49:19.291Z,80.92
2022-10-22T13:51:47.622Z,80.66
2022-10-22T13:54:25.110Z,80.79
2022-10-22T13:56:53.725Z,80.63
2022-10-22T13:59:23.779Z,80.38
2022-10-22T14:01:52.491Z,80.84
2022-10-22T14:04:20.285Z,81.25
2022-10-22T14:06:47.988Z,81.28
2022-10-22T14:09:16.480Z,81.16
2022-10-22T14:11:44.342Z,80.99
2022-10-22T14:14:14.294Z,80.86
2022-10-22T14:16:42.096Z,80.77
2022-10-22T14:19:16.443Z,80.72
2022-10-22T14:21:44.159Z,80.90
2022-10-22T14:24:13.259Z,81.05
2022-10-22T14:26:41.811Z,81.12
2022-10-22T14:29:10.768Z,80.96
2022-10-22T14:31:42.181Z,80.54
2022-10-22T14:34:15.304Z,80.66
2022-10-22T14:36:44.131Z,80.47
2022-10-22T14:39:12.953Z,80.68
2022-10-22T14:41:41.274Z,80.84
2022-10-22T14:44:13.949Z,80.76
2022-10-22T14:46:44.164Z,80.61
2022-10-22T14:49:13.153Z,80.50
2022-10-22T14:51:41.224Z,80.40
2022-10-22T14:54:08.939Z,80.41
2022-10-22T14:59:10.482Z,81.03
2022-10-22T15:01:39.346Z,80.89
2022-10-22T15:04:06.965Z,80.63
2022-10-22T15:06:35.560Z,80.49
2022-10-22T15:09:03.677Z,80.46
2022-10-22T15:11:31.332Z,80.43
2022-10-22T15:13:59.034Z,80.66
2022-10-22T15:16:26.743Z,81.13
2022-10-22T15:18:54.646Z,80.94
2022-10-22T15:21:23.090Z,80.79
2022-10-22T15:23:50.846Z,80.92
2022-10-22T15:26:19.156Z,80.75
2022-10-22T15:28:46.964Z,80.94
2022-10-22T15:31:14.986Z,80.95
2022-10-22T15:33:43.763Z,81.45
2022-10-22T15:36:15.205Z,81.67
2022-10-22T15:38:45.139Z,81.71
2022-10-22T15:41:13.481Z,81.44
2022-10-22T15:43:41.324Z,81.51
2022-10-22T15:46:10.512Z,81.51
2022-10-22T15:48:38.543Z,81.82
2022-10-22T15:51:14.690Z,82.04
2022-10-22T15:53:43.191Z,82.24
2022-10-22T15:56:14.424Z,82.15
2022-10-22T15:58:42.190Z,81.90
2022-10-22T16:01:13.080Z,81.88
2022-10-22T16:03:41.439Z,81.93
2022-10-22T16:06:09.799Z,82.17
2022-10-22T16:08:38.332Z,82.45
2022-10-22T16:11:06.131Z,82.64
2022-10-22T16:13:35.991Z,82.36
2022-10-22T16:16:08.046Z,82.33
2022-10-22T16:18:35.773Z,82.24
2022-10-22T16:21:04.193Z,82.03
2022-10-22T16:23:31.889Z,82.37
2022-10-22T16:26:02.569Z,82.64
2022-10-22T16:28:30.424Z,82.68
2022-10-22T16:31:06.196Z,82.58
2022-10-22T16:33:41.464Z,82.37
2022-10-22T16:36:14.690Z,82.30
2022-10-22T16:38:42.624Z,82.22
2022-10-22T16:41:15.645Z,82.38
2022-10-22T16:43:47.002Z,82.54
2022-10-22T16:46:20.393Z,82.75
2022-10-22T16:48:50.491Z,82.53
2022-10-22T16:51:21.874Z,82.34
2022-10-22T16:53:52.345Z,82.24
2022-10-22T16:56:20.647Z,82.21
2022-10-22T16:58:51.128Z,82.46
2022-10-22T17:01:21.515Z,82.76
2022-10-22T17:03:49.251Z,82.86
2022-10-22T17:06:16.884Z,83.03
2022-10-22T17:08:44.638Z,82.80
2022-10-22T17:11:17.913Z,82.59
2022-10-22T17:13:49.077Z,82.60
2022-10-22T17:16:20.278Z,82.65
2022-10-22T17:18:48.293Z,82.90
2022-10-22T17:21:16.199Z,83.14
2022-10-22T17:23:44.289Z,82.99
2022-10-22T17:26:22.785Z,82.85
2022-10-22T17:28:50.743Z,82.78
2022-10-22T17:31:27.068Z,82.84
2022-10-22T17:33:57.116Z,83.01
2022-10-22T17:36:27.515Z,83.30
2022-10-22T17:38:59.194Z,83.35
2022-10-22T17:41:29.868Z,83.28
2022-10-22T17:44:01.359Z,83.06
2022-10-22T17:46:31.314Z,83.13
2022-10-22T17:49:04.835Z,82.93
2022-10-22T17:51:33.034Z,83.19
2022-10-22T17:54:02.435Z,83.59
2022-10-22T17:56:32.354Z,83.72
2022-10-22T17:59:00.133Z,83.86
2022-10-22T18:01:33.643Z,83.74
2022-10-22T18:04:07.806Z,83.42
2022-10-22T18:06:36.085Z,83.50
2022-10-22T18:09:08.020Z,83.98
2022-10-22T18:11:37.317Z,83.93
2022-10-22T18:14:05.110Z,83.99
2022-10-22T18:16:33.156Z,83.78
2022-10-22T18:19:00.933Z,83.87
2022-10-22T18:21:30.453Z,84.01
2022-10-22T18:23:59.655Z,84.33
2022-10-22T18:26:27.468Z,84.40
2022-10-22T18:28:57.115Z,84.29
2022-10-22T18:31:26.513Z,84.27
2022-10-22T18:36:29.166Z,84.26
2022-10-22T18:38:59.402Z,84.50
2022-10-22T18:41:29.540Z,84.73
2022-10-22T18:44:00.040Z,84.63
2022-10-22T18:46:29.639Z,84.66
2022-10-22T18:48:58.733Z,84.80
2022-10-22T18:51:34.513Z,84.59
2022-10-22T18:54:21.639Z,85.09
2022-10-22T18:56:50.784Z,85.10
2022-10-22T18:59:21.398Z,84.99
2022-10-22T19:01:51.385Z,84.95
2022-10-22T19:04:19.282Z,84.73
2022-10-22T19:06:47.008Z,84.84
2022-10-22T19:09:15.543Z,85.14
2022-10-22T19:11:46.353Z,85.45
2022-10-22T19:14:14.996Z,85.26
2022-10-22T19:16:42.857Z,85.17
2022-10-22T19:19:11.281Z,85.09
2022-10-22T19:21:38.931Z,85.18
2022-10-22T19:24:06.892Z,85.35
2022-10-22T19:26:34.761Z,85.48
2022-10-22T19:29:02.929Z,85.35
2022-10-22T19:31:31.283Z,85.35
2022-10-22T19:34:01.288Z,85.25
2022-10-22T19:36:32.535Z,85.61
2022-10-22T19:39:00.917Z,85.98
2022-10-22T19:41:30.578Z,86.04
2022-10-22T19:43:59.761Z,85.86
2022-10-22T19:46:29.674Z,85.77
2022-10-22T19:48:57.501Z,85.51
2022-10-22T19:51:29.766Z,85.95
2022-10-22T19:53:59.831Z,86.24
2022-10-22T19:56:28.778Z,86.08
2022-10-22T19:58:57.027Z,86.07
2022-10-22T20:01:25.877Z,86.00
2022-10-22T20:03:53.964Z,85.84
2022-10-22T20:06:21.977Z,86.17
2022-10-22T20:08:52.384Z,86.24
2022-10-22T20:11:27.412Z,86.68
2022-10-22T20:13:56.614Z,86.65
2022-10-22T20:16:28.584Z,86.47
2022-10-22T20:19:00.951Z,86.80
2022-10-22T20:21:28.789Z,86.81
2022-10-22T20:23:57.574Z,86.86
2022-10-22T20:26:28.179Z,87.06
2022-10-22T20:28:57.183Z,87.39
2022-10-22T20:31:28.584Z,87.46
2022-10-22T20:33:58.926Z,87.78
2022-10-22T20:36:27.715Z,87.74
2022-10-22T20:39:00.269Z,87.28
2022-10-22T20:41:29.353Z,87.45
2022-10-22T20:43:57.510Z,88.04
2022-10-22T20:46:30.877Z,88.13
2022-10-22T20:49:00.951Z,88.33
2022-10-22T20:51:28.673Z,88.30
2022-10-22T20:53:57.063Z,88.26
2022-10-22T20:56:24.799Z,88.20
2022-10-22T20:59:03.874Z,88.22
2022-10-22T21:01:52.328Z,88.35
2022-10-22T21:04:21.760Z,88.81
2022-10-22T21:06:50.475Z,88.61
2022-10-22T21:09:18.214Z,88.44
2022-10-22T21:11:47.069Z,88.71
2022-10-22T21:14:16.976Z,88.68
2022-10-22T21:16:49.233Z,88.36
2022-10-22T21:19:21.829Z,88.54
2022-10-22T21:21:49.787Z,88.92
2022-10-22T21:24:17.501Z,89.38
2022-10-22T21:26:45.213Z,89.51
2022-10-22T21:29:16.072Z,89.21
2022-10-22T21:31:43.888Z,88.88
2022-10-22T21:34:17.149Z,89.01
2022-10-22T21:36:44.995Z,89.57
2022-10-22T21:39:15.353Z,89.59
2022-10-22T21:41:42.941Z,89.87
2022-10-22T21:44:10.582Z,90.27
2022-10-22T21:46:38.362Z,89.96
2022-10-22T21:49:06.118Z,89.62
2022-10-22T21:51:35.807Z,89.75
2022-10-22T21:54:04.142Z,90.02
2022-10-22T21:56:34.550Z,90.19
2022-10-22T21:59:04.265Z,90.29
2022-10-22T22:01:32.080Z,90.39
2022-10-22T22:03:59.901Z,90.09
2022-10-22T22:06:32.060Z,90.14
2022-10-22T22:09:03.209Z,90.18
2022-10-22T22:11:31.134Z,90.31
2022-10-22T22:13:59.554Z,90.22
2022-10-22T22:16:30.715Z,90.39
2022-10-22T22:19:00.242Z,90.37
2022-10-22T22:21:28.105Z,90.40
2022-10-22T22:23:57.283Z,90.13
2022-10-22T22:26:29.614Z,90.50
2022-10-22T22:28:59.407Z,90.31
2022-10-22T22:31:33.986Z,90.58
2022-10-22T22:34:07.814Z,90.50
2022-10-22T22:36:38.624Z,90.44
2022-10-22T22:39:08.378Z,90.62
2022-10-22T22:41:36.042Z,90.28
2022-10-22T22:44:03.984Z,90.42
2022-10-22T22:46:31.829Z,90.52
2022-10-22T22:48:59.728Z,90.60
2022-10-22T22:51:27.629Z,90.59
2022-10-22T22:53:57.636Z,90.18
2022-10-22T22:56:27.863Z,90.07
2022-10-22T22:58:56.480Z,89.89
2022-10-22T23:01:30.710Z,90.16
2022-10-22T23:04:07.071Z,90.30
2022-10-22T23:06:38.993Z,90.38
2022-10-22T23:09:09.495Z,90.28
2022-10-22T23:11:37.466Z,90.16
2022-10-22T23:14:07.271Z,89.91
2022-10-22T23:16:37.296Z,90.02
2022-10-22T23:19:05.803Z,90.00
2022-10-22T23:21:39.295Z,89.86
2022-10-22T23:24:11.435Z,89.95
2022-10-22T23:26:42.690Z,90.09
2022-10-22T23:29:16.324Z,89.90
2022-10-22T23:31:45.057Z,89.48
2022-10-22T23:34:17.127Z,89.30
2022-10-22T23:36:45.492Z,89.21
2022-10-22T23:39:17.008Z,89.40
2022-10-22T23:41:45.215Z,89.70
2022-10-22T23:44:13.438Z,89.64
2022-10-22T23:46:41.069Z,89.39
2022-10-22T23:49:09.611Z,89.32
2022-10-22T23:51:38.260Z,89.19
2022-10-22T23:54:08.711Z,89.01
2022-10-22T23:56:36.709Z,89.14
2022-10-22T23:59:04.930Z,89.53
